sensor_id;sensor_type;location;lat;lon;timestamp;P1;durP1;ratioP1;P2;durP2;ratioP2
77876;SDS011;67251;50.844;7.978;2023-02-18T00:02:17;9.18;;;4.88;;
77876;SDS011;67251;50.844;7.978;2023-02-18T00:04:42;8.82;;;4.32;;
77876;SDS011;67251;50.844;7.978;2023-02-18T00:07:07;8.85;;;4.93;;
77876;SDS011;67251;50.844;7.978;2023-02-18T00:09:33;10.68;;;5.07;;
77876;SDS011;67251;50.844;7.978;2023-02-18T00:11:58;9.98;;;5.32;;
77876;SDS011;67251;50.844;7.978;2023-02-18T00:14:23;9.23;;;4.43;;
77876;SDS011;67251;50.844;7.978;2023-02-18T00:16:49;7.90;;;3.97;;
77876;SDS011;67251;50.844;7.978;2023-02-18T00:19:16;9.48;;;4.75;;
77876;SDS011;67251;50.844;7.978;2023-02-18T00:21:43;9.23;;;4.70;;
77876;SDS011;67251;50.844;7.978;2023-02-18T00:24:10;10.23;;;5.53;;
77876;SDS011;67251;50.844;7.978;2023-02-18T00:26:39;11.05;;;5.43;;
77876;SDS011;67251;50.844;7.978;2023-02-18T00:29:05;9.02;;;4.38;;
77876;SDS011;67251;50.844;7.978;2023-02-18T00:31:32;9.85;;;4.93;;
77876;SDS011;67251;50.844;7.978;2023-02-18T00:33:59;8.13;;;4.28;;
77876;SDS011;67251;50.844;7.978;2023-02-18T00:36:25;8.43;;;4.18;;
77876;SDS011;67251;50.844;7.978;2023-02-18T00:38:52;9.75;;;4.32;;
77876;SDS011;67251;50.844;7.978;2023-02-18T00:41:23;9.02;;;4.60;;
77876;SDS011;67251;50.844;7.978;2023-02-18T00:43:51;8.50;;;3.67;;
77876;SDS011;67251;50.844;7.978;2023-02-18T00:46:17;8.88;;;3.80;;
77876;SDS011;67251;50.844;7.978;2023-02-18T00:48:43;9.75;;;4.30;;
77876;SDS011;67251;50.844;7.978;2023-02-18T00:51:09;6.97;;;3.25;;
77876;SDS011;67251;50.844;7.978;2023-02-18T00:53:35;8.27;;;3.60;;
77876;SDS011;67251;50.844;7.978;2023-02-18T00:56:01;8.07;;;3.67;;
77876;SDS011;67251;50.844;7.978;2023-02-18T00:58:26;7.28;;;3.60;;
77876;SDS011;67251;50.844;7.978;2023-02-18T01:00:52;7.18;;;3.70;;
77876;SDS011;67251;50.844;7.978;2023-02-18T01:03:19;7.38;;;3.17;;
77876;SDS011;67251;50.844;7.978;2023-02-18T01:05:46;7.82;;;3.65;;
77876;SDS011;67251;50.844;7.978;2023-02-18T01:08:11;8.20;;;3.63;;
77876;SDS011;67251;50.844;7.978;2023-02-18T01:10:40;8.63;;;3.92;;
77876;SDS011;67251;50.844;7.978;2023-02-18T01:13:06;8.40;;;3.95;;
77876;SDS011;67251;50.844;7.978;2023-02-18T01:15:33;7.93;;;3.47;;
77876;SDS011;67251;50.844;7.978;2023-02-18T01:17:59;9.13;;;3.63;;
77876;SDS011;67251;50.844;7.978;2023-02-18T01:20:24;7.85;;;3.92;;
77876;SDS011;67251;50.844;7.978;2023-02-18T01:22:50;9.88;;;3.58;;
77876;SDS011;67251;50.844;7.978;2023-02-18T01:25:16;8.02;;;3.45;;
77876;SDS011;67251;50.844;7.978;2023-02-18T01:27:41;6.88;;;3.15;;
77876;SDS011;67251;50.844;7.978;2023-02-18T01:30:07;8.15;;;3.58;;
77876;SDS011;67251;50.844;7.978;2023-02-18T01:32:35;6.15;;;2.75;;
77876;SDS011;67251;50.844;7.978;2023-02-18T01:35:02;6.75;;;3.40;;
77876;SDS011;67251;50.844;7.978;2023-02-18T01:37:29;7.45;;;3.17;;
77876;SDS011;67251;50.844;7.978;2023-02-18T01:39:54;7.13;;;3.15;;
77876;SDS011;67251;50.844;7.978;2023-02-18T01:42:20;6.65;;;3.30;;
77876;SDS011;67251;50.844;7.978;2023-02-18T01:44:48;6.88;;;3.15;;
77876;SDS011;67251;50.844;7.978;2023-02-18T01:47:14;6.68;;;2.80;;
77876;SDS011;67251;50.844;7.978;2023-02-18T01:49:41;6.82;;;3.13;;
77876;SDS011;67251;50.844;7.978;2023-02-18T01:59:39;6.40;;;2.70;;
77876;SDS011;67251;50.844;7.978;2023-02-18T02:02:10;6.15;;;2.53;;
77876;SDS011;67251;50.844;7.978;2023-02-18T02:04:38;6.30;;;2.28;;
77876;SDS011;67251;50.844;7.978;2023-02-18T02:07:04;6.72;;;2.67;;
77876;SDS011;67251;50.844;7.978;2023-02-18T02:09:30;6.15;;;2.60;;
77876;SDS011;67251;50.844;7.978;2023-02-18T02:17:23;6.43;;;2.47;;
77876;SDS011;67251;50.844;7.978;2023-02-18T02:50:46;5.20;;;1.98;;
77876;SDS011;67251;50.844;7.978;2023-02-18T02:53:26;5.20;;;1.73;;
77876;SDS011;67251;50.844;7.978;2023-02-18T02:55:54;4.47;;;1.52;;
77876;SDS011;67251;50.844;7.978;2023-02-18T02:58:20;4.50;;;1.85;;
77876;SDS011;67251;50.844;7.978;2023-02-18T03:12:00;3.70;;;1.48;;
77876;SDS011;67251;50.844;7.978;2023-02-18T03:17:24;4.63;;;2.00;;
77876;SDS011;67251;50.844;7.978;2023-02-18T03:20:02;5.90;;;2.20;;
77876;SDS011;67251;50.844;7.978;2023-02-18T03:22:36;4.72;;;1.75;;
77876;SDS011;67251;50.844;7.978;2023-02-18T03:25:05;5.18;;;1.83;;
77876;SDS011;67251;50.844;7.978;2023-02-18T03:27:35;5.15;;;2.15;;
77876;SDS011;67251;50.844;7.978;2023-02-18T03:30:12;4.28;;;1.63;;
77876;SDS011;67251;50.844;7.978;2023-02-18T03:32:41;4.32;;;1.70;;
77876;SDS011;67251;50.844;7.978;2023-02-18T03:35:10;4.95;;;1.70;;
77876;SDS011;67251;50.844;7.978;2023-02-18T03:37:39;4.95;;;1.95;;
77876;SDS011;67251;50.844;7.978;2023-02-18T03:40:11;4.05;;;1.52;;
77876;SDS011;67251;50.844;7.978;2023-02-18T03:42:36;4.85;;;1.70;;
77876;SDS011;67251;50.844;7.978;2023-02-18T03:45:02;6.13;;;2.10;;
77876;SDS011;67251;50.844;7.978;2023-02-18T03:47:28;4.60;;;1.70;;
77876;SDS011;67251;50.844;7.978;2023-02-18T03:49:53;5.38;;;1.70;;
77876;SDS011;67251;50.844;7.978;2023-02-18T03:52:19;5.32;;;2.00;;
77876;SDS011;67251;50.844;7.978;2023-02-18T03:54:44;4.65;;;1.65;;
77876;SDS011;67251;50.844;7.978;2023-02-18T03:57:09;4.13;;;1.63;;
77876;SDS011;67251;50.844;7.978;2023-02-18T03:59:35;5.60;;;1.80;;
77876;SDS011;67251;50.844;7.978;2023-02-18T04:02:00;4.18;;;1.58;;
77876;SDS011;67251;50.844;7.978;2023-02-18T04:04:26;4.93;;;1.55;;
77876;SDS011;67251;50.844;7.978;2023-02-18T04:06:52;4.00;;;1.60;;
77876;SDS011;67251;50.844;7.978;2023-02-18T04:09:17;5.00;;;1.60;;
77876;SDS011;67251;50.844;7.978;2023-02-18T04:11:43;4.00;;;1.50;;
77876;SDS011;67251;50.844;7.978;2023-02-18T04:14:08;4.05;;;1.50;;
77876;SDS011;67251;50.844;7.978;2023-02-18T04:16:37;3.42;;;1.42;;
77876;SDS011;67251;50.844;7.978;2023-02-18T04:19:02;3.42;;;1.27;;
77876;SDS011;67251;50.844;7.978;2023-02-18T04:21:27;3.85;;;1.30;;
77876;SDS011;67251;50.844;7.978;2023-02-18T04:23:53;2.83;;;1.13;;
77876;SDS011;67251;50.844;7.978;2023-02-18T04:26:18;3.58;;;1.20;;
77876;SDS011;67251;50.844;7.978;2023-02-18T04:28:43;3.42;;;1.33;;
77876;SDS011;67251;50.844;7.978;2023-02-18T04:31:09;3.15;;;1.20;;
77876;SDS011;67251;50.844;7.978;2023-02-18T04:33:35;4.18;;;1.23;;
77876;SDS011;67251;50.844;7.978;2023-02-18T04:36:01;3.22;;;1.27;;
77876;SDS011;67251;50.844;7.978;2023-02-18T04:38:26;3.20;;;1.10;;
77876;SDS011;67251;50.844;7.978;2023-02-18T04:40:51;3.75;;;1.17;;
77876;SDS011;67251;50.844;7.978;2023-02-18T04:43:17;3.47;;;1.10;;
77876;SDS011;67251;50.844;7.978;2023-02-18T04:45:42;2.80;;;1.08;;
77876;SDS011;67251;50.844;7.978;2023-02-18T04:48:07;2.90;;;0.90;;
77876;SDS011;67251;50.844;7.978;2023-02-18T04:50:33;3.92;;;1.10;;
77876;SDS011;67251;50.844;7.978;2023-02-18T04:52:58;2.92;;;1.00;;
77876;SDS011;67251;50.844;7.978;2023-02-18T04:55:24;3.03;;;1.02;;
77876;SDS011;67251;50.844;7.978;2023-02-18T04:57:49;2.80;;;1.10;;
77876;SDS011;67251;50.844;7.978;2023-02-18T05:00:16;3.00;;;0.80;;
77876;SDS011;67251;50.844;7.978;2023-02-18T05:02:44;3.10;;;1.10;;
77876;SDS011;67251;50.844;7.978;2023-02-18T05:05:09;2.65;;;1.00;;
77876;SDS011;67251;50.844;7.978;2023-02-18T05:07:36;3.00;;;1.00;;
77876;SDS011;67251;50.844;7.978;2023-02-18T05:10:01;1.42;;;0.50;;
77876;SDS011;67251;50.844;7.978;2023-02-18T05:12:28;2.15;;;0.80;;
77876;SDS011;67251;50.844;7.978;2023-02-18T05:14:53;2.15;;;0.75;;
77876;SDS011;67251;50.844;7.978;2023-02-18T05:17:18;1.85;;;0.70;;
77876;SDS011;67251;50.844;7.978;2023-02-18T05:19:44;1.95;;;0.80;;
77876;SDS011;67251;50.844;7.978;2023-02-18T05:22:09;2.38;;;0.82;;
77876;SDS011;67251;50.844;7.978;2023-02-18T05:24:34;2.25;;;0.80;;
77876;SDS011;67251;50.844;7.978;2023-02-18T05:27:00;1.90;;;0.75;;
77876;SDS011;67251;50.844;7.978;2023-02-18T05:29:25;2.58;;;0.80;;
77876;SDS011;67251;50.844;7.978;2023-02-18T05:31:50;2.47;;;0.88;;
77876;SDS011;67251;50.844;7.978;2023-02-18T05:34:16;1.52;;;0.60;;
77876;SDS011;67251;50.844;7.978;2023-02-18T05:36:42;2.05;;;0.70;;
77876;SDS011;67251;50.844;7.978;2023-02-18T05:39:07;1.80;;;0.80;;
77876;SDS011;67251;50.844;7.978;2023-02-18T05:41:32;2.47;;;0.80;;
77876;SDS011;67251;50.844;7.978;2023-02-18T05:43:58;1.17;;;0.45;;
77876;SDS011;67251;50.844;7.978;2023-02-18T05:46:42;1.63;;;0.57;;
77876;SDS011;67251;50.844;7.978;2023-02-18T05:49:07;1.30;;;0.50;;
77876;SDS011;67251;50.844;7.978;2023-02-18T05:51:33;1.33;;;0.50;;
77876;SDS011;67251;50.844;7.978;2023-02-18T05:53:58;1.23;;;0.50;;
77876;SDS011;67251;50.844;7.978;2023-02-18T05:56:23;1.83;;;0.50;;
77876;SDS011;67251;50.844;7.978;2023-02-18T05:58:49;1.58;;;0.60;;
77876;SDS011;67251;50.844;7.978;2023-02-18T06:01:14;2.90;;;0.63;;
77876;SDS011;67251;50.844;7.978;2023-02-18T06:03:40;1.17;;;0.43;;
77876;SDS011;67251;50.844;7.978;2023-02-18T06:06:05;1.60;;;0.50;;
77876;SDS011;67251;50.844;7.978;2023-02-18T06:08:31;1.27;;;0.50;;
77876;SDS011;67251;50.844;7.978;2023-02-18T06:10:56;1.23;;;0.40;;
77876;SDS011;67251;50.844;7.978;2023-02-18T06:13:22;1.75;;;0.47;;
77876;SDS011;67251;50.844;7.978;2023-02-18T06:15:50;1.30;;;0.60;;
77876;SDS011;67251;50.844;7.978;2023-02-18T06:18:16;1.48;;;0.50;;
77876;SDS011;67251;50.844;7.978;2023-02-18T06:20:43;1.02;;;0.40;;
77876;SDS011;67251;50.844;7.978;2023-02-18T06:23:08;1.05;;;0.47;;
77876;SDS011;67251;50.844;7.978;2023-02-18T06:25:33;1.23;;;0.40;;
77876;SDS011;67251;50.844;7.978;2023-02-18T06:27:59;1.00;;;0.40;;
77876;SDS011;67251;50.844;7.978;2023-02-18T06:30:24;1.27;;;0.43;;
77876;SDS011;67251;50.844;7.978;2023-02-18T06:32:50;1.42;;;0.30;;
77876;SDS011;67251;50.844;7.978;2023-02-18T06:35:15;1.23;;;0.40;;
77876;SDS011;67251;50.844;7.978;2023-02-18T06:37:40;1.33;;;0.45;;
77876;SDS011;67251;50.844;7.978;2023-02-18T06:40:06;0.75;;;0.40;;
77876;SDS011;67251;50.844;7.978;2023-02-18T06:42:33;0.80;;;0.30;;
77876;SDS011;67251;50.844;7.978;2023-02-18T06:44:58;1.42;;;0.50;;
77876;SDS011;67251;50.844;7.978;2023-02-18T06:47:24;0.98;;;0.30;;
77876;SDS011;67251;50.844;7.978;2023-02-18T06:49:49;0.50;;;0.30;;
77876;SDS011;67251;50.844;7.978;2023-02-18T06:52:15;0.90;;;0.40;;
77876;SDS011;67251;50.844;7.978;2023-02-18T06:54:40;0.43;;;0.30;;
77876;SDS011;67251;50.844;7.978;2023-02-18T06:57:05;0.75;;;0.30;;
77876;SDS011;67251;50.844;7.978;2023-02-18T06:59:31;1.33;;;0.28;;
77876;SDS011;67251;50.844;7.978;2023-02-18T07:01:57;0.70;;;0.30;;
77876;SDS011;67251;50.844;7.978;2023-02-18T07:04:22;0.30;;;0.20;;
77876;SDS011;67251;50.844;7.978;2023-02-18T07:06:47;1.00;;;0.40;;
77876;SDS011;67251;50.844;7.978;2023-02-18T07:09:13;1.77;;;0.45;;
77876;SDS011;67251;50.844;7.978;2023-02-18T07:11:38;2.92;;;0.70;;
77876;SDS011;67251;50.844;7.978;2023-02-18T07:14:03;0.70;;;0.30;;
77876;SDS011;67251;50.844;7.978;2023-02-18T07:16:29;0.85;;;0.30;;
77876;SDS011;67251;50.844;7.978;2023-02-18T07:18:54;0.10;;;0.10;;
77876;SDS011;67251;50.844;7.978;2023-02-18T07:21:20;0.40;;;0.20;;
77876;SDS011;67251;50.844;7.978;2023-02-18T07:23:45;0.57;;;0.32;;
77876;SDS011;67251;50.844;7.978;2023-02-18T07:26:11;0.45;;;0.30;;
77876;SDS011;67251;50.844;7.978;2023-02-18T07:28:38;1.10;;;0.30;;
77876;SDS011;67251;50.844;7.978;2023-02-18T07:31:04;1.05;;;0.30;;
77876;SDS011;67251;50.844;7.978;2023-02-18T07:33:29;0.73;;;0.25;;
77876;SDS011;67251;50.844;7.978;2023-02-18T07:35:56;0.40;;;0.30;;
77876;SDS011;67251;50.844;7.978;2023-02-18T07:38:22;1.27;;;0.45;;
77876;SDS011;67251;50.844;7.978;2023-02-18T07:40:49;0.75;;;0.30;;
77876;SDS011;67251;50.844;7.978;2023-02-18T07:43:15;1.02;;;0.38;;
77876;SDS011;67251;50.844;7.978;2023-02-18T07:45:40;0.57;;;0.22;;
77876;SDS011;67251;50.844;7.978;2023-02-18T07:48:06;1.15;;;0.40;;
77876;SDS011;67251;50.844;7.978;2023-02-18T07:50:31;0.95;;;0.40;;
77876;SDS011;67251;50.844;7.978;2023-02-18T07:53:03;0.60;;;0.30;;
77876;SDS011;67251;50.844;7.978;2023-02-18T07:55:29;1.27;;;0.45;;
77876;SDS011;67251;50.844;7.978;2023-02-18T07:58:23;0.80;;;0.30;;
77876;SDS011;67251;50.844;7.978;2023-02-18T08:00:56;1.83;;;0.47;;
77876;SDS011;67251;50.844;7.978;2023-02-18T08:03:26;1.60;;;0.40;;
77876;SDS011;67251;50.844;7.978;2023-02-18T08:05:54;2.10;;;0.40;;
77876;SDS011;67251;50.844;7.978;2023-02-18T08:08:21;1.23;;;0.35;;
77876;SDS011;67251;50.844;7.978;2023-02-18T08:10:52;1.90;;;0.50;;
77876;SDS011;67251;50.844;7.978;2023-02-18T08:13:19;0.95;;;0.30;;
77876;SDS011;67251;50.844;7.978;2023-02-18T08:15:44;0.60;;;0.30;;
77876;SDS011;67251;50.844;7.978;2023-02-18T08:18:13;1.73;;;0.50;;
77876;SDS011;67251;50.844;7.978;2023-02-18T08:20:41;1.75;;;0.47;;
77876;SDS011;67251;50.844;7.978;2023-02-18T08:23:06;1.08;;;0.50;;
77876;SDS011;67251;50.844;7.978;2023-02-18T08:25:32;1.13;;;0.40;;
77876;SDS011;67251;50.844;7.978;2023-02-18T08:27:58;1.63;;;0.40;;
77876;SDS011;67251;50.844;7.978;2023-02-18T08:30:24;0.82;;;0.30;;
77876;SDS011;67251;50.844;7.978;2023-02-18T08:32:50;0.50;;;0.20;;
77876;SDS011;67251;50.844;7.978;2023-02-18T08:35:15;1.55;;;0.40;;
77876;SDS011;67251;50.844;7.978;2023-02-18T08:37:41;0.75;;;0.30;;
77876;SDS011;67251;50.844;7.978;2023-02-18T08:40:08;1.00;;;0.30;;
77876;SDS011;67251;50.844;7.978;2023-02-18T08:42:36;1.20;;;0.50;;
77876;SDS011;67251;50.844;7.978;2023-02-18T08:45:01;0.63;;;0.20;;
77876;SDS011;67251;50.844;7.978;2023-02-18T08:47:27;0.30;;;0.22;;
77876;SDS011;67251;50.844;7.978;2023-02-18T08:49:52;1.38;;;0.40;;
77876;SDS011;67251;50.844;7.978;2023-02-18T08:52:18;0.65;;;0.28;;
77876;SDS011;67251;50.844;7.978;2023-02-18T08:54:44;1.25;;;0.40;;
77876;SDS011;67251;50.844;7.978;2023-02-18T08:57:09;1.08;;;0.38;;
77876;SDS011;67251;50.844;7.978;2023-02-18T08:59:35;0.80;;;0.30;;
77876;SDS011;67251;50.844;7.978;2023-02-18T09:02:00;0.82;;;0.30;;
77876;SDS011;67251;50.844;7.978;2023-02-18T09:04:26;1.42;;;0.30;;
77876;SDS011;67251;50.844;7.978;2023-02-18T09:06:51;1.55;;;0.40;;
77876;SDS011;67251;50.844;7.978;2023-02-18T09:09:16;0.43;;;0.30;;
77876;SDS011;67251;50.844;7.978;2023-02-18T09:11:42;0.80;;;0.30;;
77876;SDS011;67251;50.844;7.978;2023-02-18T09:14:08;1.67;;;0.63;;
77876;SDS011;67251;50.844;7.978;2023-02-18T09:16:33;1.27;;;0.28;;
77876;SDS011;67251;50.844;7.978;2023-02-18T09:18:59;1.15;;;0.38;;
77876;SDS011;67251;50.844;7.978;2023-02-18T09:21:25;0.80;;;0.28;;
77876;SDS011;67251;50.844;7.978;2023-02-18T09:23:51;1.60;;;0.50;;
77876;SDS011;67251;50.844;7.978;2023-02-18T09:26:17;2.55;;;0.80;;
77876;SDS011;67251;50.844;7.978;2023-02-18T09:28:47;3.17;;;0.90;;
77876;SDS011;67251;50.844;7.978;2023-02-18T09:31:13;5.10;;;1.17;;
77876;SDS011;67251;50.844;7.978;2023-02-18T09:33:42;3.85;;;1.15;;
77876;SDS011;67251;50.844;7.978;2023-02-18T09:36:09;4.70;;;1.20;;
77876;SDS011;67251;50.844;7.978;2023-02-18T09:38:35;4.03;;;1.10;;
77876;SDS011;67251;50.844;7.978;2023-02-18T09:41:02;5.60;;;1.48;;
77876;SDS011;67251;50.844;7.978;2023-02-18T09:43:35;3.55;;;1.20;;
77876;SDS011;67251;50.844;7.978;2023-02-18T09:46:12;4.15;;;1.20;;
77876;SDS011;67251;50.844;7.978;2023-02-18T09:48:47;7.28;;;2.05;;
77876;SDS011;67251;50.844;7.978;2023-02-18T09:51:15;2.75;;;1.27;;
77876;SDS011;67251;50.844;7.978;2023-02-18T09:53:42;3.65;;;1.20;;
77876;SDS011;67251;50.844;7.978;2023-02-18T09:58:44;2.65;;;1.00;;
77876;SDS011;67251;50.844;7.978;2023-02-18T10:03:50;2.80;;;1.10;;
77876;SDS011;67251;50.844;7.978;2023-02-18T10:06:26;2.65;;;1.05;;
77876;SDS011;67251;50.844;7.978;2023-02-18T10:08:55;4.20;;;1.70;;
77876;SDS011;67251;50.844;7.978;2023-02-18T10:11:59;3.85;;;1.15;;
77876;SDS011;67251;50.844;7.978;2023-02-18T10:14:19;3.35;;;1.35;;
77876;SDS011;67251;50.844;7.978;2023-02-18T10:16:45;4.28;;;1.20;;
77876;SDS011;67251;50.844;7.978;2023-02-18T10:19:20;4.47;;;1.05;;
77876;SDS011;67251;50.844;7.978;2023-02-18T10:21:50;2.90;;;1.10;;
77876;SDS011;67251;50.844;7.978;2023-02-18T10:24:27;4.10;;;1.27;;
77876;SDS011;67251;50.844;7.978;2023-02-18T10:26:56;3.92;;;0.88;;
77876;SDS011;67251;50.844;7.978;2023-02-18T10:29:22;4.72;;;1.25;;
77876;SDS011;67251;50.844;7.978;2023-02-18T10:42:39;2.85;;;0.82;;
77876;SDS011;67251;50.844;7.978;2023-02-18T10:50:51;3.55;;;1.17;;
77876;SDS011;67251;50.844;7.978;2023-02-18T10:56:00;2.13;;;0.82;;
77876;SDS011;67251;50.844;7.978;2023-02-18T11:00:54;3.95;;;1.23;;
77876;SDS011;67251;50.844;7.978;2023-02-18T11:05:47;3.20;;;1.20;;
77876;SDS011;67251;50.844;7.978;2023-02-18T11:08:26;1.95;;;0.80;;
77876;SDS011;67251;50.844;7.978;2023-02-18T11:10:54;5.90;;;1.23;;
77876;SDS011;67251;50.844;7.978;2023-02-18T11:13:25;5.10;;;1.30;;
77876;SDS011;67251;50.844;7.978;2023-02-18T11:16:01;3.05;;;1.20;;
77876;SDS011;67251;50.844;7.978;2023-02-18T11:18:38;4.13;;;1.10;;
77876;SDS011;67251;50.844;7.978;2023-02-18T11:21:50;4.57;;;1.15;;
77876;SDS011;67251;50.844;7.978;2023-02-18T11:23:55;4.53;;;1.23;;
77876;SDS011;67251;50.844;7.978;2023-02-18T11:26:31;4.65;;;1.10;;
77876;SDS011;67251;50.844;7.978;2023-02-18T11:29:00;3.80;;;1.30;;
77876;SDS011;67251;50.844;7.978;2023-02-18T11:31:38;3.67;;;0.98;;
77876;SDS011;67251;50.844;7.978;2023-02-18T11:34:21;3.92;;;1.33;;
77876;SDS011;67251;50.844;7.978;2023-02-18T11:36:51;6.28;;;1.58;;
77876;SDS011;67251;50.844;7.978;2023-02-18T11:41:43;4.45;;;0.98;;
77876;SDS011;67251;50.844;7.978;2023-02-18T11:47:03;2.50;;;0.95;;
77876;SDS011;67251;50.844;7.978;2023-02-18T11:50:09;3.45;;;1.20;;
77876;SDS011;67251;50.844;7.978;2023-02-18T11:52:41;3.33;;;1.23;;
77876;SDS011;67251;50.844;7.978;2023-02-18T11:55:22;2.55;;;0.77;;
77876;SDS011;67251;50.844;7.978;2023-02-18T12:00:39;6.93;;;1.15;;
77876;SDS011;67251;50.844;7.978;2023-02-18T12:09:04;3.00;;;0.93;;
77876;SDS011;67251;50.844;7.978;2023-02-18T12:11:36;6.05;;;1.00;;
77876;SDS011;67251;50.844;7.978;2023-02-18T12:14:16;3.33;;;1.00;;
77876;SDS011;67251;50.844;7.978;2023-02-18T12:24:47;2.72;;;1.10;;
77876;SDS011;67251;50.844;7.978;2023-02-18T12:38:31;3.63;;;1.08;;
77876;SDS011;67251;50.844;7.978;2023-02-18T12:44:12;2.55;;;0.93;;
77876;SDS011;67251;50.844;7.978;2023-02-18T12:46:44;3.22;;;1.00;;
77876;SDS011;67251;50.844;7.978;2023-02-18T13:06:17;2.22;;;0.60;;
77876;SDS011;67251;50.844;7.978;2023-02-18T13:09:02;2.50;;;0.77;;
77876;SDS011;67251;50.844;7.978;2023-02-18T13:11:40;2.55;;;0.90;;
77876;SDS011;67251;50.844;7.978;2023-02-18T13:14:29;2.65;;;0.93;;
77876;SDS011;67251;50.844;7.978;2023-02-18T13:16:58;1.92;;;0.70;;
77876;SDS011;67251;50.844;7.978;2023-02-18T13:19:28;2.00;;;0.60;;
77876;SDS011;67251;50.844;7.978;2023-02-18T13:21:58;3.17;;;0.90;;
77876;SDS011;67251;50.844;7.978;2023-02-18T13:27:06;2.38;;;0.90;;
77876;SDS011;67251;50.844;7.978;2023-02-18T13:29:36;3.70;;;0.90;;
77876;SDS011;67251;50.844;7.978;2023-02-18T13:32:14;1.90;;;0.60;;
77876;SDS011;67251;50.844;7.978;2023-02-18T13:37:22;3.17;;;0.90;;
77876;SDS011;67251;50.844;7.978;2023-02-18T13:39:57;2.50;;;0.80;;
77876;SDS011;67251;50.844;7.978;2023-02-18T13:42:26;1.30;;;0.50;;
77876;SDS011;67251;50.844;7.978;2023-02-18T13:55:24;1.70;;;0.80;;
77876;SDS011;67251;50.844;7.978;2023-02-18T13:57:59;2.63;;;0.70;;
77876;SDS011;67251;50.844;7.978;2023-02-18T14:00:33;2.40;;;0.60;;
77876;SDS011;67251;50.844;7.978;2023-02-18T14:03:18;3.03;;;0.80;;
77876;SDS011;67251;50.844;7.978;2023-02-18T14:06:14;3.00;;;0.80;;
77876;SDS011;67251;50.844;7.978;2023-02-18T14:08:41;2.03;;;0.70;;
77876;SDS011;67251;50.844;7.978;2023-02-18T14:13:40;2.88;;;0.80;;
77876;SDS011;67251;50.844;7.978;2023-02-18T14:16:07;2.58;;;0.80;;
77876;SDS011;67251;50.844;7.978;2023-02-18T14:28:37;2.08;;;0.70;;
77876;SDS011;67251;50.844;7.978;2023-02-18T14:33:46;1.70;;;0.55;;
77876;SDS011;67251;50.844;7.978;2023-02-18T14:45:49;1.80;;;0.60;;
77876;SDS011;67251;50.844;7.978;2023-02-18T14:48:16;3.47;;;0.73;;
77876;SDS011;67251;50.844;7.978;2023-02-18T14:50:47;1.60;;;0.70;;
77876;SDS011;67251;50.844;7.978;2023-02-18T14:53:16;1.50;;;0.68;;
77876;SDS011;67251;50.844;7.978;2023-02-18T14:55:48;2.42;;;0.70;;
77876;SDS011;67251;50.844;7.978;2023-02-18T15:00:43;1.67;;;0.75;;
77876;SDS011;67251;50.844;7.978;2023-02-18T15:03:15;1.50;;;0.60;;
77876;SDS011;67251;50.844;7.978;2023-02-18T15:05:43;1.73;;;0.70;;
77876;SDS011;67251;50.844;7.978;2023-02-18T15:08:27;1.48;;;0.55;;
77876;SDS011;67251;50.844;7.978;2023-02-18T15:11:10;2.17;;;0.80;;
77876;SDS011;67251;50.844;7.978;2023-02-18T15:13:36;2.40;;;0.90;;
77876;SDS011;67251;50.844;7.978;2023-02-18T15:16:08;2.90;;;0.70;;
77876;SDS011;67251;50.844;7.978;2023-02-18T15:18:41;1.75;;;0.70;;
77876;SDS011;67251;50.844;7.978;2023-02-18T15:21:15;2.38;;;0.60;;
77876;SDS011;67251;50.844;7.978;2023-02-18T15:23:44;1.85;;;0.63;;
77876;SDS011;67251;50.844;7.978;2023-02-18T15:26:14;3.03;;;0.80;;
77876;SDS011;67251;50.844;7.978;2023-02-18T15:29:02;3.05;;;0.75;;
77876;SDS011;67251;50.844;7.978;2023-02-18T15:31:28;1.80;;;0.77;;
77876;SDS011;67251;50.844;7.978;2023-02-18T15:33:59;3.22;;;1.20;;
77876;SDS011;67251;50.844;7.978;2023-02-18T15:36:25;2.90;;;0.90;;
77876;SDS011;67251;50.844;7.978;2023-02-18T15:38:51;1.65;;;0.63;;
77876;SDS011;67251;50.844;7.978;2023-02-18T15:41:17;3.50;;;1.33;;
77876;SDS011;67251;50.844;7.978;2023-02-18T15:43:54;2.70;;;0.80;;
77876;SDS011;67251;50.844;7.978;2023-02-18T15:46:29;4.25;;;1.33;;
77876;SDS011;67251;50.844;7.978;2023-02-18T15:48:55;3.53;;;1.20;;
77876;SDS011;67251;50.844;7.978;2023-02-18T15:51:26;4.07;;;1.73;;
77876;SDS011;67251;50.844;7.978;2023-02-18T15:53:53;4.15;;;1.67;;
77876;SDS011;67251;50.844;7.978;2023-02-18T15:56:32;3.38;;;1.25;;
77876;SDS011;67251;50.844;7.978;2023-02-18T16:01:42;2.22;;;0.90;;
77876;SDS011;67251;50.844;7.978;2023-02-18T16:04:12;3.35;;;1.45;;
77876;SDS011;67251;50.844;7.978;2023-02-18T16:06:43;3.22;;;1.17;;
77876;SDS011;67251;50.844;7.978;2023-02-18T16:09:15;4.07;;;1.02;;
77876;SDS011;67251;50.844;7.978;2023-02-18T16:11:47;2.17;;;0.80;;
77876;SDS011;67251;50.844;7.978;2023-02-18T16:14:23;3.05;;;0.90;;
77876;SDS011;67251;50.844;7.978;2023-02-18T16:19:52;2.45;;;0.70;;
77876;SDS011;67251;50.844;7.978;2023-02-18T16:24:48;3.63;;;1.50;;
77876;SDS011;67251;50.844;7.978;2023-02-18T16:27:18;3.15;;;1.13;;
77876;SDS011;67251;50.844;7.978;2023-02-18T16:29:44;2.67;;;1.00;;
77876;SDS011;67251;50.844;7.978;2023-02-18T16:32:09;3.65;;;1.35;;
77876;SDS011;67251;50.844;7.978;2023-02-18T16:34:35;1.85;;;0.60;;
77876;SDS011;67251;50.844;7.978;2023-02-18T16:37:00;2.10;;;0.70;;
77876;SDS011;67251;50.844;7.978;2023-02-18T16:39:45;2.97;;;0.85;;
77876;SDS011;67251;50.844;7.978;2023-02-18T16:42:11;2.90;;;1.00;;
77876;SDS011;67251;50.844;7.978;2023-02-18T16:44:37;2.67;;;0.90;;
77876;SDS011;67251;50.844;7.978;2023-02-18T16:47:03;3.22;;;1.05;;
77876;SDS011;67251;50.844;7.978;2023-02-18T16:49:30;3.05;;;0.90;;
77876;SDS011;67251;50.844;7.978;2023-02-18T16:51:58;1.88;;;0.85;;
77876;SDS011;67251;50.844;7.978;2023-02-18T16:54:29;3.05;;;1.00;;
77876;SDS011;67251;50.844;7.978;2023-02-18T16:56:54;2.42;;;0.90;;
77876;SDS011;67251;50.844;7.978;2023-02-18T16:59:20;2.83;;;1.20;;
77876;SDS011;67251;50.844;7.978;2023-02-18T17:01:45;3.05;;;1.13;;
77876;SDS011;67251;50.844;7.978;2023-02-18T17:04:11;3.60;;;1.15;;
77876;SDS011;67251;50.844;7.978;2023-02-18T17:06:38;2.58;;;1.00;;
77876;SDS011;67251;50.844;7.978;2023-02-18T17:09:09;2.67;;;0.80;;
77876;SDS011;67251;50.844;7.978;2023-02-18T17:11:40;3.35;;;1.20;;
77876;SDS011;67251;50.844;7.978;2023-02-18T17:14:08;3.72;;;1.60;;
77876;SDS011;67251;50.844;7.978;2023-02-18T17:19:03;3.00;;;1.10;;
77876;SDS011;67251;50.844;7.978;2023-02-18T17:21:28;3.58;;;1.20;;
77876;SDS011;67251;50.844;7.978;2023-02-18T17:23:53;3.20;;;1.30;;
77876;SDS011;67251;50.844;7.978;2023-02-18T17:26:23;4.28;;;1.83;;
77876;SDS011;67251;50.844;7.978;2023-02-18T17:28:50;3.80;;;1.70;;
77876;SDS011;67251;50.844;7.978;2023-02-18T17:31:19;4.43;;;1.95;;
77876;SDS011;67251;50.844;7.978;2023-02-18T17:33:48;4.80;;;2.28;;
77876;SDS011;67251;50.844;7.978;2023-02-18T17:36:14;5.18;;;2.47;;
77876;SDS011;67251;50.844;7.978;2023-02-18T17:38:39;4.78;;;2.13;;
77876;SDS011;67251;50.844;7.978;2023-02-18T17:41:05;4.55;;;2.17;;
77876;SDS011;67251;50.844;7.978;2023-02-18T17:43:31;4.20;;;1.80;;
77876;SDS011;67251;50.844;7.978;2023-02-18T17:45:56;4.57;;;1.90;;
77876;SDS011;67251;50.844;7.978;2023-02-18T17:48:22;6.18;;;2.50;;
77876;SDS011;67251;50.844;7.978;2023-02-18T17:50:49;4.78;;;2.30;;
77876;SDS011;67251;50.844;7.978;2023-02-18T17:53:15;5.47;;;2.72;;
77876;SDS011;67251;50.844;7.978;2023-02-18T17:55:42;5.45;;;3.10;;
77876;SDS011;67251;50.844;7.978;2023-02-18T17:58:09;5.30;;;2.63;;
77876;SDS011;67251;50.844;7.978;2023-02-18T18:00:40;4.40;;;2.15;;
77876;SDS011;67251;50.844;7.978;2023-02-18T18:03:09;5.90;;;3.08;;
77876;SDS011;67251;50.844;7.978;2023-02-18T18:05:37;7.35;;;3.58;;
77876;SDS011;67251;50.844;7.978;2023-02-18T18:08:04;4.97;;;2.40;;
77876;SDS011;67251;50.844;7.978;2023-02-18T18:10:31;5.22;;;2.63;;